Time;durP1;ratioP1;P1;durP2;ratioP2;P2;SDS_P1;SDS_P2;PMS_P1;PMS_P2;Temp;Humidity;BMP_temperature;BMP_pressure;BME280_temperature;BME280_humidity;BME280_pressure;Samples;Min_cycle;Max_cycle;Signal;HPM_P1;HPM_P2
2022/11/15 00:01:26;;;;;;;;;;;6.90;99.90;;;;;;5101967;27;19920;-69
2022/11/15 00:03:51;;;;;;;;;;;6.90;99.90;;;;;;5097429;27;20285;-67
2022/11/15 00:06:17;;;;;;;;;;;7.00;99.90;;;;;;5106155;27;21386;-67
2022/11/15 00:08:43;;;;;;;;;;;7.00;99.90;;;;;;5102296;27;20010;-67
2022/11/15 00:11:10;;;;;;;;;;;7.00;99.90;;;;;;5103351;27;20034;-67
2022/11/15 00:13:35;;;;;;;;;;;7.10;99.90;;;;;;5099741;28;19967;-66
2022/11/15 00:16:01;;;;;;;;;;;7.10;99.90;;;;;;5098206;27;19959;-67
2022/11/15 00:18:27;;;;;;;;;;;7.10;99.90;;;;;;5099873;27;19942;-67
2022/11/15 00:20:52;;;;;;;;;;;7.10;99.90;;;;;;5102246;27;19931;-67
2022/11/15 00:23:18;;;;;;;;;;;7.20;99.90;;;;;;5099074;27;20382;-67
2022/11/15 00:25:44;;;;;;;;;;;7.10;99.90;;;;;;5101119;27;19964;-68
2022/11/15 00:28:09;;;;;;;;;;;7.10;99.90;;;;;;5094145;27;19920;-67
2022/11/15 00:30:35;;;;;;;;;;;7.20;99.90;;;;;;5100067;27;19924;-67
2022/11/15 00:33:04;;;;;;;;;;;7.10;99.90;;;;;;5099837;28;19935;-67
2022/11/15 00:35:31;;;;;;;;;;;7.20;99.90;;;;;;5095525;28;19924;-68
2022/11/15 00:37:56;;;;;;;;;;;7.20;99.90;;;;;;5099406;28;20016;-67
2022/11/15 00:40:22;;;;;;;;;;;7.20;99.90;;;;;;5101386;27;20018;-68
2022/11/15 00:42:47;;;;;;;;;;;7.20;99.90;;;;;;5097005;27;19921;-67
2022/11/15 00:45:13;;;;;;;;;;;7.20;99.90;;;;;;5095128;27;20871;-67
2022/11/15 00:47:38;;;;;;;;;;;7.20;99.90;;;;;;5099965;28;19927;-68
2022/11/15 00:50:04;;;;;;;;;;;7.20;99.90;;;;;;5096747;28;19943;-69
2022/11/15 00:52:30;;;;;;;;;;;7.20;99.90;;;;;;5099839;27;19920;-68
2022/11/15 00:54:55;;;;;;;;;;;7.10;99.90;;;;;;5129308;27;19924;-68
2022/11/15 00:57:20;;;;;;;;;;;7.20;99.90;;;;;;5099953;28;19928;-68
2022/11/15 00:59:46;;;;;;;;;;;7.20;99.90;;;;;;5096921;28;19926;-67
2022/11/15 01:02:11;;;;;;;;;;;7.20;99.90;;;;;;5098852;28;20014;-68
2022/11/15 01:04:37;;;;;;;;;;;7.20;99.90;;;;;;5099413;28;20394;-68
2022/11/15 01:07:02;;;;;;;;;;;7.20;99.90;;;;;;5099827;28;19969;-67
2022/11/15 01:09:28;;;;;;;;;;;7.20;99.90;;;;;;5112148;28;19935;-68
2022/11/15 01:11:53;;;;;;;;;;;7.20;99.90;;;;;;5077768;28;20317;-68
2022/11/15 01:14:19;;;;;;;;;;;7.20;99.90;;;;;;5079447;28;20073;-67
2022/11/15 01:16:44;;;;;;;;;;;7.20;99.90;;;;;;5079521;28;19947;-68
2022/11/15 01:19:10;;;;;;;;;;;7.20;99.90;;;;;;5080701;28;19927;-68
2022/11/15 01:21:35;;;;;;;;;;;7.20;99.90;;;;;;5078062;28;20283;-68
2022/11/15 01:24:01;;;;;;;;;;;7.20;99.90;;;;;;5084277;28;20339;-68
2022/11/15 01:26:26;;;;;;;;;;;7.20;99.90;;;;;;5081051;28;20065;-68
2022/11/15 01:28:52;;;;;;;;;;;7.20;99.90;;;;;;5084505;28;20010;-67
2022/11/15 01:31:19;;;;;;;;;;;7.30;99.90;;;;;;5082297;28;19928;-67
2022/11/15 01:33:45;;;;;;;;;;;7.20;99.90;;;;;;5109575;27;19928;-67
2022/11/15 01:36:12;;;;;;;;;;;7.30;99.90;;;;;;5083593;28;19919;-67
2022/11/15 01:38:38;;;;;;;;;;;7.30;99.90;;;;;;5121538;27;19930;-67
2022/11/15 01:41:04;;;;;;;;;;;7.30;99.90;;;;;;5106159;27;19928;-67
2022/11/15 01:43:31;;;;;;;;;;;7.30;99.90;;;;;;5079605;28;19931;-68
2022/11/15 01:46:35;;;;;;;;;;;7.30;99.90;;;;;;5084046;28;20413;-67
2022/11/15 01:49:03;;;;;;;;;;;7.30;99.90;;;;;;5064134;28;19931;-68
2022/11/15 01:51:31;;;;;;;;;;;7.30;99.90;;;;;;5079680;28;19920;-67
2022/11/15 01:53:59;;;;;;;;;;;7.30;99.90;;;;;;5086222;27;19979;-68
2022/11/15 01:56:26;;;;;;;;;;;7.30;99.90;;;;;;5106142;27;19927;-67
2022/11/15 01:58:52;;;;;;;;;;;7.30;99.90;;;;;;5087312;28;19920;-67
2022/11/15 02:01:19;;;;;;;;;;;7.40;99.90;;;;;;5085123;27;19927;-67
2022/11/15 02:03:52;;;;;;;;;;;7.40;99.90;;;;;;5086354;27;19988;-68
2022/11/15 02:06:18;;;;;;;;;;;7.30;99.90;;;;;;5078169;28;20379;-67
2022/11/15 02:08:44;;;;;;;;;;;7.40;99.90;;;;;;5101655;27;20019;-68
2022/11/15 02:11:10;;;;;;;;;;;7.40;99.90;;;;;;5101585;28;20018;-68
2022/11/15 02:13:36;;;;;;;;;;;7.40;99.90;;;;;;5104211;27;20010;-68
2022/11/15 02:16:04;;;;;;;;;;;7.40;99.90;;;;;;5098514;28;19943;-67
2022/11/15 02:18:35;;;;;;;;;;;7.50;99.90;;;;;;5105420;27;20464;-68
2022/11/15 02:21:05;;;;;;;;;;;7.50;99.90;;;;;;5135307;27;19927;-67
2022/11/15 02:23:49;;;;;;;;;;;7.50;99.90;;;;;;5132435;27;19939;-68
2022/11/15 02:26:30;;;;;;;;;;;7.50;99.90;;;;;;5117180;27;20271;-67
2022/11/15 02:28:55;;;;;;;;;;;7.50;99.90;;;;;;5096945;27;19927;-67
2022/11/15 02:31:27;;;;;;;;;;;7.60;99.90;;;;;;5103586;27;20420;-68
2022/11/15 02:34:11;;;;;;;;;;;7.60;99.90;;;;;;5105560;27;19950;-67
2022/11/15 02:36:58;;;;;;;;;;;7.60;99.90;;;;;;5100905;27;20006;-67
2022/11/15 02:39:28;;;;;;;;;;;7.60;99.90;;;;;;5105224;27;20099;-67
2022/11/15 02:41:55;;;;;;;;;;;7.60;99.90;;;;;;5101689;27;19926;-68
2022/11/15 02:44:20;;;;;;;;;;;7.60;99.90;;;;;;5101026;27;20073;-67
2022/11/15 02:49:35;;;;;;;;;;;7.70;99.90;;;;;;5131327;27;19976;-68
2022/11/15 02:52:01;;;;;;;;;;;7.70;99.90;;;;;;5101440;27;19920;-68
2022/11/15 02:54:29;;;;;;;;;;;7.80;99.90;;;;;;5133523;27;20006;-67
2022/11/15 02:56:55;;;;;;;;;;;7.80;99.90;;;;;;5105868;27;20306;-68
2022/11/15 02:59:28;;;;;;;;;;;7.80;99.90;;;;;;5103060;27;19920;-68
2022/11/15 03:02:03;;;;;;;;;;;7.80;99.90;;;;;;5101854;27;20421;-68
2022/11/15 03:04:36;;;;;;;;;;;7.80;99.90;;;;;;5101365;27;19919;-68
2022/11/15 03:07:13;;;;;;;;;;;7.80;99.90;;;;;;5100608;27;19924;-67
2022/11/15 03:09:39;;;;;;;;;;;7.90;99.90;;;;;;5096820;27;19921;-67
2022/11/15 03:12:08;;;;;;;;;;;7.90;99.90;;;;;;5086561;27;19935;-68
2022/11/15 03:14:35;;;;;;;;;;;7.90;99.90;;;;;;5082111;28;19932;-68
2022/11/15 03:17:13;;;;;;;;;;;7.90;99.90;;;;;;5082917;28;20010;-68
2022/11/15 03:19:49;;;;;;;;;;;7.90;99.90;;;;;;5085458;28;20286;-70
2022/11/15 03:22:16;;;;;;;;;;;8.00;99.90;;;;;;5086410;28;19975;-71
2022/11/15 03:24:43;;;;;;;;;;;7.90;99.90;;;;;;5083571;27;19974;-71
2022/11/15 03:27:09;;;;;;;;;;;7.90;99.90;;;;;;5084208;28;20025;-71
2022/11/15 03:29:41;;;;;;;;;;;7.90;99.90;;;;;;5086036;28;19923;-71
2022/11/15 03:32:11;;;;;;;;;;;8.00;99.90;;;;;;5107351;27;20294;-70
2022/11/15 03:34:56;;;;;;;;;;;8.00;99.90;;;;;;5079812;27;20260;-70
2022/11/15 03:37:25;;;;;;;;;;;8.00;99.90;;;;;;5078708;27;19924;-70
2022/11/15 03:39:50;;;;;;;;;;;8.00;99.90;;;;;;5088038;28;19928;-70
2022/11/15 03:42:22;;;;;;;;;;;8.10;99.90;;;;;;5079201;27;19923;-70
2022/11/15 03:44:56;;;;;;;;;;;8.00;99.90;;;;;;5083367;28;20358;-70
2022/11/15 03:47:45;;;;;;;;;;;8.10;99.90;;;;;;5084078;28;20413;-70
2022/11/15 03:50:12;;;;;;;;;;;8.10;99.90;;;;;;5079886;27;19919;-70
2022/11/15 03:52:39;;;;;;;;;;;8.10;99.90;;;;;;5112251;27;20403;-70
2022/11/15 03:55:06;;;;;;;;;;;8.10;99.90;;;;;;5111292;27;20361;-69
2022/11/15 03:57:31;;;;;;;;;;;8.20;99.90;;;;;;5083193;28;19984;-70
2022/11/15 03:59:57;;;;;;;;;;;8.20;99.90;;;;;;5079079;28;20366;-70
2022/11/15 04:02:22;;;;;;;;;;;8.30;99.90;;;;;;5078101;28;19930;-70
2022/11/15 04:04:48;;;;;;;;;;;8.30;99.90;;;;;;5116096;27;19923;-69
2022/11/15 04:07:13;;;;;;;;;;;8.30;99.90;;;;;;5083745;27;20010;-70
2022/11/15 04:10:01;;;;;;;;;;;8.30;99.90;;;;;;5086918;28;19927;-70
2022/11/15 04:12:30;;;;;;;;;;;8.40;99.90;;;;;;5080439;27;20294;-70
2022/11/15 04:15:06;;;;;;;;;;;8.40;99.90;;;;;;5080913;28;20491;-69
2022/11/15 04:17:32;;;;;;;;;;;8.40;99.90;;;;;;5080907;27;20001;-70
2022/11/15 04:25:26;;;;;;;;;;;8.50;99.90;;;;;;5085301;28;20220;-70
2022/11/15 04:27:51;;;;;;;;;;;8.50;99.90;;;;;;5086393;27;19924;-70
2022/11/15 04:30:17;;;;;;;;;;;8.50;99.90;;;;;;5083649;28;19920;-70
2022/11/15 04:32:42;;;;;;;;;;;8.60;99.90;;;;;;5084859;28;19924;-70
2022/11/15 04:35:08;;;;;;;;;;;8.50;99.90;;;;;;5080104;28;20387;-70
2022/11/15 04:37:33;;;;;;;;;;;8.70;99.90;;;;;;5081545;28;19984;-70
2022/11/15 04:39:59;;;;;;;;;;;8.60;99.90;;;;;;5088005;28;19928;-71
2022/11/15 04:42:24;;;;;;;;;;;8.70;99.90;;;;;;5082827;28;20026;-71
2022/11/15 04:44:50;;;;;;;;;;;8.80;99.90;;;;;;5082177;28;19919;-70
2022/11/15 04:47:15;;;;;;;;;;;8.80;99.90;;;;;;5082207;28;20149;-71
2022/11/15 04:49:41;;;;;;;;;;;8.80;99.90;;;;;;5084199;28;19920;-70
2022/11/15 04:52:06;;;;;;;;;;;8.90;99.90;;;;;;5086071;28;19926;-70
2022/11/15 04:54:32;;;;;;;;;;;8.80;99.90;;;;;;5084776;27;19930;-70
2022/11/15 04:56:57;;;;;;;;;;;8.80;99.90;;;;;;5103755;28;20278;-70
2022/11/15 04:59:23;;;;;;;;;;;8.90;99.90;;;;;;5088541;28;20014;-71
2022/11/15 05:01:48;;;;;;;;;;;8.90;99.90;;;;;;5079652;28;19950;-69
2022/11/15 05:04:20;;;;;;;;;;;9.00;99.90;;;;;;5081184;28;20355;-71
2022/11/15 05:06:46;;;;;;;;;;;9.00;99.90;;;;;;5086816;28;19969;-71
2022/11/15 05:09:12;;;;;;;;;;;9.00;99.90;;;;;;5131094;27;19920;-70
2022/11/15 05:11:38;;;;;;;;;;;9.00;99.90;;;;;;5130776;27;19920;-70
2022/11/15 05:14:04;;;;;;;;;;;9.00;99.90;;;;;;5101420;28;19973;-71
2022/11/15 05:16:29;;;;;;;;;;;9.00;99.90;;;;;;5096877;28;19928;-71
2022/11/15 05:18:55;;;;;;;;;;;9.10;99.90;;;;;;5099130;28;19924;-70
2022/11/15 05:21:20;;;;;;;;;;;9.20;99.90;;;;;;5095672;28;19928;-70
2022/11/15 05:23:46;;;;;;;;;;;9.20;99.90;;;;;;5134996;27;20394;-70
2022/11/15 05:26:11;;;;;;;;;;;9.10;99.90;;;;;;5103201;28;19967;-70
2022/11/15 05:28:37;;;;;;;;;;;9.20;99.90;;;;;;5116259;28;19920;-70
2022/11/15 05:31:08;;;;;;;;;;;9.20;99.90;;;;;;5100019;28;19928;-70
2022/11/15 05:33:34;;;;;;;;;;;9.30;99.90;;;;;;5126900;27;19939;-70
2022/11/15 05:36:05;;;;;;;;;;;9.30;99.90;;;;;;5101092;28;20010;-69
2022/11/15 05:38:31;;;;;;;;;;;9.30;99.90;;;;;;5096485;28;19963;-70
2022/11/15 05:40:56;;;;;;;;;;;9.30;99.90;;;;;;5100210;28;19927;-70
2022/11/15 05:43:22;;;;;;;;;;;9.40;99.90;;;;;;5093829;28;19928;-71
2022/11/15 05:45:48;;;;;;;;;;;9.50;99.90;;;;;;5102432;28;19924;-70
2022/11/15 05:48:14;;;;;;;;;;;9.40;99.90;;;;;;5095214;28;19923;-71
2022/11/15 05:50:42;;;;;;;;;;;9.40;99.90;;;;;;5095178;28;19931;-70
2022/11/15 05:53:07;;;;;;;;;;;9.40;99.90;;;;;;5125118;27;20340;-70
2022/11/15 05:55:33;;;;;;;;;;;9.50;99.90;;;;;;5131990;27;19919;-71
2022/11/15 05:57:59;;;;;;;;;;;9.50;99.90;;;;;;5100942;28;19920;-71
2022/11/15 06:00:25;;;;;;;;;;;9.50;99.90;;;;;;5097218;28;20106;-70
2022/11/15 06:02:50;;;;;;;;;;;9.50;99.90;;;;;;5098135;28;20014;-71
2022/11/15 06:05:16;;;;;;;;;;;9.50;99.90;;;;;;5131012;27;19964;-70
2022/11/15 06:07:41;;;;;;;;;;;9.60;99.90;;;;;;5098354;28;19927;-71
2022/11/15 06:10:07;;;;;;;;;;;9.50;99.90;;;;;;5099740;28;19919;-71
2022/11/15 06:12:33;;;;;;;;;;;9.60;99.90;;;;;;5094100;28;20508;-70
2022/11/15 06:14:58;;;;;;;;;;;9.60;99.90;;;;;;5132187;27;19971;-70
2022/11/15 06:17:23;;;;;;;;;;;9.60;99.90;;;;;;5106438;27;20347;-70
2022/11/15 06:19:49;;;;;;;;;;;9.60;99.90;;;;;;5102318;27;19927;-70
2022/11/15 06:22:14;;;;;;;;;;;9.70;99.90;;;;;;5100687;27;20006;-71
2022/11/15 06:24:40;;;;;;;;;;;9.60;99.90;;;;;;5105564;27;19944;-70
2022/11/15 06:27:05;;;;;;;;;;;9.80;99.90;;;;;;5102275;27;20018;-71
2022/11/15 06:29:31;;;;;;;;;;;9.70;99.90;;;;;;5105112;27;20390;-71
2022/11/15 06:31:56;;;;;;;;;;;9.80;99.90;;;;;;5100147;27;19927;-71
2022/11/15 06:34:22;;;;;;;;;;;9.70;99.90;;;;;;5106780;27;20355;-71
2022/11/15 06:36:47;;;;;;;;;;;9.80;99.90;;;;;;5106116;27;21881;-71
2022/11/15 06:39:13;;;;;;;;;;;9.70;99.90;;;;;;5100494;27;19973;-71
2022/11/15 06:41:38;;;;;;;;;;;9.70;99.90;;;;;;5102054;27;20062;-71
2022/11/15 06:44:04;;;;;;;;;;;9.70;99.90;;;;;;5101569;27;20367;-71
2022/11/15 06:46:29;;;;;;;;;;;9.90;99.90;;;;;;5099464;27;19920;-71
2022/11/15 06:48:55;;;;;;;;;;;9.80;99.90;;;;;;5097485;27;19928;-71
2022/11/15 06:51:20;;;;;;;;;;;9.90;99.90;;;;;;5099212;27;20009;-70
2022/11/15 06:53:47;;;;;;;;;;;9.90;99.90;;;;;;5102712;27;20326;-71
2022/11/15 06:56:12;;;;;;;;;;;9.90;99.90;;;;;;5109663;27;19920;-71
2022/11/15 06:58:38;;;;;;;;;;;9.90;99.90;;;;;;5094534;27;20189;-71
2022/11/15 07:01:05;;;;;;;;;;;9.90;99.90;;;;;;5103017;27;19945;-71
2022/11/15 07:03:30;;;;;;;;;;;10.00;99.90;;;;;;5099001;27;20330;-71
2022/11/15 07:05:57;;;;;;;;;;;9.90;99.90;;;;;;5104893;27;20181;-70
2022/11/15 07:08:23;;;;;;;;;;;10.00;99.90;;;;;;5134870;27;19924;-71
2022/11/15 07:10:49;;;;;;;;;;;10.00;99.90;;;;;;5104859;28;19951;-70
2022/11/15 07:13:15;;;;;;;;;;;10.00;99.90;;;;;;5100117;27;20030;-70
2022/11/15 07:15:40;;;;;;;;;;;10.10;99.90;;;;;;5111124;28;19919;-70
2022/11/15 07:18:06;;;;;;;;;;;10.00;99.90;;;;;;5098951;27;20345;-71
2022/11/15 07:20:31;;;;;;;;;;;10.10;99.90;;;;;;5108814;27;20015;-70
2022/11/15 07:23:01;;;;;;;;;;;10.10;99.90;;;;;;5106006;28;20362;-70
2022/11/15 07:25:26;;;;;;;;;;;10.10;99.90;;;;;;5100443;28;19971;-70
2022/11/15 07:27:56;;;;;;;;;;;10.20;99.90;;;;;;5130440;27;19982;-71
2022/11/15 07:30:21;;;;;;;;;;;10.10;99.90;;;;;;5105889;28;20418;-70
2022/11/15 07:32:47;;;;;;;;;;;10.10;99.90;;;;;;5099735;28;19920;-71
2022/11/15 07:35:12;;;;;;;;;;;10.10;99.90;;;;;;5105684;27;19920;-70
2022/11/15 07:37:38;;;;;;;;;;;10.30;99.90;;;;;;5103058;27;20542;-71
2022/11/15 07:40:04;;;;;;;;;;;10.20;99.90;;;;;;5101936;27;20014;-70
2022/11/15 07:45:16;;;;;;;;;;;10.30;99.90;;;;;;5106262;27;19926;-71
2022/11/15 07:47:45;;;;;;;;;;;10.30;99.90;;;;;;5106212;27;19919;-71
2022/11/15 07:50:10;;;;;;;;;;;10.30;99.90;;;;;;5101923;27;19919;-71
2022/11/15 07:52:36;;;;;;;;;;;10.30;99.90;;;;;;5094964;27;20434;-72
2022/11/15 07:55:01;;;;;;;;;;;10.30;99.90;;;;;;5102094;27;19928;-71
2022/11/15 07:57:27;;;;;;;;;;;10.40;99.90;;;;;;5097789;27;20022;-71
2022/11/15 07:59:52;;;;;;;;;;;10.40;99.90;;;;;;5128170;27;19920;-71
2022/11/15 08:02:18;;;;;;;;;;;10.40;99.90;;;;;;5124196;27;20001;-71
2022/11/15 08:04:43;;;;;;;;;;;10.50;99.90;;;;;;5106041;28;19931;-70
2022/11/15 08:07:09;;;;;;;;;;;10.40;99.90;;;;;;5126055;27;19931;-71
2022/11/15 08:09:34;;;;;;;;;;;10.40;99.90;;;;;;5117490;27;19924;-70
2022/11/15 08:12:00;;;;;;;;;;;10.40;99.90;;;;;;5086083;28;19955;-71
2022/11/15 08:14:25;;;;;;;;;;;10.50;99.90;;;;;;5086659;28;19992;-71
2022/11/15 08:16:52;;;;;;;;;;;10.50;99.90;;;;;;5121487;27;19920;-70
2022/11/15 08:19:17;;;;;;;;;;;10.60;99.90;;;;;;5078507;28;19927;-70
2022/11/15 08:21:43;;;;;;;;;;;10.60;99.90;;;;;;5071656;28;19920;-70
2022/11/15 08:24:09;;;;;;;;;;;10.60;99.90;;;;;;5111737;27;19924;-70
2022/11/15 08:26:35;;;;;;;;;;;10.70;99.90;;;;;;5111880;27;19926;-70
2022/11/15 08:29:00;;;;;;;;;;;10.70;99.90;;;;;;5078852;28;20372;-70
2022/11/15 08:31:26;;;;;;;;;;;10.70;99.90;;;;;;5078547;28;19927;-71
2022/11/15 08:33:51;;;;;;;;;;;10.80;99.90;;;;;;5093713;28;19963;-70
2022/11/15 08:36:17;;;;;;;;;;;10.70;99.90;;;;;;5097248;28;19920;-70
2022/11/15 08:38:43;;;;;;;;;;;10.80;99.90;;;;;;5076006;28;19985;-70
2022/11/15 08:41:11;;;;;;;;;;;10.70;99.90;;;;;;5122224;27;19996;-69
2022/11/15 08:43:36;;;;;;;;;;;10.90;99.90;;;;;;5114549;27;19977;-70
2022/11/15 08:46:02;;;;;;;;;;;10.80;99.90;;;;;;5087617;28;19920;-70
2022/11/15 08:48:27;;;;;;;;;;;10.90;99.90;;;;;;5086574;27;20464;-70
2022/11/15 08:50:54;;;;;;;;;;;10.90;99.90;;;;;;5091654;28;19926;-70
2022/11/15 08:53:19;;;;;;;;;;;11.00;99.90;;;;;;5076730;28;19924;-70
2022/11/15 08:55:45;;;;;;;;;;;11.00;99.90;;;;;;5081785;28;19932;-70
2022/11/15 08:58:10;;;;;;;;;;;11.20;99.90;;;;;;5116333;27;20406;-70
2022/11/15 09:00:36;;;;;;;;;;;11.20;99.90;;;;;;5106996;28;19974;-70
2022/11/15 09:03:03;;;;;;;;;;;11.20;99.90;;;;;;5113779;27;20021;-70
2022/11/15 09:05:29;;;;;;;;;;;11.30;99.90;;;;;;5087695;28;20367;-70
2022/11/15 09:07:54;;;;;;;;;;;11.40;99.90;;;;;;5094464;28;20570;-70
2022/11/15 09:10:20;;;;;;;;;;;11.30;99.90;;;;;;5094894;28;19923;-70
2022/11/15 09:12:48;;;;;;;;;;;11.40;99.90;;;;;;5106736;28;20011;-70
2022/11/15 09:15:14;;;;;;;;;;;11.50;99.90;;;;;;5109948;28;19924;-70
2022/11/15 09:17:39;;;;;;;;;;;11.40;99.90;;;;;;5092778;28;19935;-70
2022/11/15 09:20:05;;;;;;;;;;;11.40;99.90;;;;;;5099599;28;19924;-70
2022/11/15 09:22:31;;;;;;;;;;;11.40;99.90;;;;;;5106354;28;19923;-70
2022/11/15 09:24:56;;;;;;;;;;;11.40;99.90;;;;;;5099889;28;19926;-70
2022/11/15 09:27:22;;;;;;;;;;;11.40;99.90;;;;;;5105228;28;19988;-70
2022/11/15 09:29:47;;;;;;;;;;;11.30;99.90;;;;;;5097378;28;19928;-70
2022/11/15 09:32:13;;;;;;;;;;;11.40;99.90;;;;;;5103721;28;19973;-70
2022/11/15 09:34:38;;;;;;;;;;;11.30;99.90;;;;;;5099398;28;20367;-70
2022/11/15 09:37:04;;;;;;;;;;;11.30;99.90;;;;;;5104031;28;19930;-71
2022/11/15 09:39:29;;;;;;;;;;;11.30;99.90;;;;;;5097893;28;19920;-71
2022/11/15 09:42:08;;;;;;;;;;;11.50;99.90;;;;;;5106747;28;19931;-70
2022/11/15 09:44:53;;;;;;;;;;;11.50;99.90;;;;;;5103838;28;20327;-70
2022/11/15 09:47:36;;;;;;;;;;;11.60;99.90;;;;;;5099295;28;20381;-70
2022/11/15 09:50:07;;;;;;;;;;;11.60;99.90;;;;;;5128235;27;20305;-71
2022/11/15 09:52:34;;;;;;;;;;;11.70;99.90;;;;;;5098621;28;19924;-70
2022/11/15 09:55:00;;;;;;;;;;;11.70;99.90;;;;;;5130770;27;20377;-70
2022/11/15 09:57:31;;;;;;;;;;;11.80;99.90;;;;;;5112288;28;19953;-70
2022/11/15 10:00:00;;;;;;;;;;;11.80;99.90;;;;;;5096604;28;19927;-71
2022/11/15 10:02:44;;;;;;;;;;;11.70;99.90;;;;;;5105235;27;19939;-71
2022/11/15 10:05:11;;;;;;;;;;;11.80;99.90;;;;;;5115659;27;20390;-71
2022/11/15 10:07:36;;;;;;;;;;;12.00;99.90;;;;;;5134891;27;19924;-71
2022/11/15 10:10:26;;;;;;;;;;;11.90;99.90;;;;;;5106137;27;19927;-70
2022/11/15 10:12:52;;;;;;;;;;;11.90;99.90;;;;;;5106576;28;19926;-71
2022/11/15 10:15:22;;;;;;;;;;;12.00;99.90;;;;;;5137165;27;19953;-70
2022/11/15 10:18:01;;;;;;;;;;;11.80;99.90;;;;;;5112015;27;20010;-69
2022/11/15 10:20:28;;;;;;;;;;;11.80;99.90;;;;;;5101776;28;20298;-70
2022/11/15 10:22:55;;;;;;;;;;;11.90;99.90;;;;;;5108079;28;19931;-70
2022/11/15 10:25:26;;;;;;;;;;;12.00;99.90;;;;;;5108089;28;20012;-70
2022/11/15 10:27:56;;;;;;;;;;;12.00;99.90;;;;;;5112888;28;20286;-70
2022/11/15 10:30:22;;;;;;;;;;;12.10;99.90;;;;;;5107602;28;20326;-70
2022/11/15 10:32:49;;;;;;;;;;;12.20;99.90;;;;;;5119352;27;20382;-70
2022/11/15 10:35:19;;;;;;;;;;;12.10;99.90;;;;;;5097313;28;19971;-70
2022/11/15 10:37:44;;;;;;;;;;;12.20;99.90;;;;;;5099508;27;19924;-71
2022/11/15 10:40:15;;;;;;;;;;;12.20;99.90;;;;;;5135128;27;19926;-69
2022/11/15 10:42:41;;;;;;;;;;;12.40;99.90;;;;;;5109398;28;19945;-70
2022/11/15 10:45:24;;;;;;;;;;;12.30;99.90;;;;;;5103577;28;19919;-71
2022/11/15 10:47:50;;;;;;;;;;;12.30;99.90;;;;;;5110832;28;19975;-71
2022/11/15 10:50:27;;;;;;;;;;;12.30;99.90;;;;;;5096653;28;19924;-70
2022/11/15 10:52:52;;;;;;;;;;;12.30;99.90;;;;;;5106913;28;20297;-71
2022/11/15 10:55:23;;;;;;;;;;;12.20;99.90;;;;;;5134627;27;19924;-69
2022/11/15 10:57:50;;;;;;;;;;;12.30;99.90;;;;;;5133702;27;19928;-70
2022/11/15 11:00:19;;;;;;;;;;;12.30;99.90;;;;;;5109057;27;19927;-70
2022/11/15 11:02:56;;;;;;;;;;;12.30;99.90;;;;;;5103371;27;19928;-69
2022/11/15 11:05:25;;;;;;;;;;;12.20;99.90;;;;;;5097649;27;19923;-70
2022/11/15 11:08:02;;;;;;;;;;;12.30;99.90;;;;;;5105497;28;19924;-70
2022/11/15 11:10:27;;;;;;;;;;;12.30;99.90;;;;;;5100977;28;19920;-70
2022/11/15 11:12:53;;;;;;;;;;;12.30;99.90;;;;;;5106175;27;20480;-70
2022/11/15 11:15:18;;;;;;;;;;;12.50;99.90;;;;;;5096808;28;20032;-69
2022/11/15 11:18:09;;;;;;;;;;;12.40;99.90;;;;;;5097657;27;19966;-70
2022/11/15 11:20:34;;;;;;;;;;;12.40;99.90;;;;;;5143402;27;19920;-70
2022/11/15 11:23:03;;;;;;;;;;;12.40;99.90;;;;;;5098951;27;20048;-70
2022/11/15 11:25:34;;;;;;;;;;;12.30;99.90;;;;;;5098862;28;20015;-69
2022/11/15 11:28:18;;;;;;;;;;;12.20;99.90;;;;;;5102081;27;19920;-70
2022/11/15 11:30:44;;;;;;;;;;;12.20;99.90;;;;;;5110668;27;20533;-70
2022/11/15 11:33:27;;;;;;;;;;;12.30;99.90;;;;;;5097592;28;20114;-69
2022/11/15 11:36:32;;;;;;;;;;;12.40;99.90;;;;;;5130854;27;19924;-69
2022/11/15 11:39:00;;;;;;;;;;;12.30;99.90;;;;;;5006575;28;19921;-69
2022/11/15 11:41:31;;;;;;;;;;;12.30;99.90;;;;;;5008035;28;19939;-69
2022/11/15 11:44:14;;;;;;;;;;;12.30;99.90;;;;;;5068155;28;19920;-70
2022/11/15 11:46:47;;;;;;;;;;;12.40;99.90;;;;;;5102742;27;19920;-70
2022/11/15 11:49:20;;;;;;;;;;;12.40;99.90;;;;;;5107116;28;20328;-68
2022/11/15 11:51:53;;;;;;;;;;;12.50;99.90;;;;;;5104542;27;20022;-69
2022/11/15 11:54:25;;;;;;;;;;;12.60;99.90;;;;;;5107117;28;19924;-71
2022/11/15 11:56:51;;;;;;;;;;;12.60;99.90;;;;;;5095844;28;20014;-69
2022/11/15 11:59:35;;;;;;;;;;;12.60;99.90;;;;;;5108040;27;20390;-69
2022/11/15 12:02:09;;;;;;;;;;;12.60;99.90;;;;;;5097690;28;20331;-69
2022/11/15 12:04:39;;;;;;;;;;;12.70;99.90;;;;;;5098032;28;19924;-70
2022/11/15 12:07:11;;;;;;;;;;;12.80;99.90;;;;;;5101095;28;19923;-70
2022/11/15 12:09:44;;;;;;;;;;;12.80;99.90;;;;;;5106688;28;20341;-68
2022/11/15 12:12:16;;;;;;;;;;;12.80;99.90;;;;;;5089367;28;19977;-70
2022/11/15 12:14:47;;;;;;;;;;;12.90;99.90;;;;;;5082123;27;19927;-70
2022/11/15 12:17:16;;;;;;;;;;;12.90;99.90;;;;;;5081633;28;19975;-70
2022/11/15 12:19:42;;;;;;;;;;;12.90;99.90;;;;;;5091011;28;19935;-69
2022/11/15 12:22:20;;;;;;;;;;;13.10;99.90;;;;;;5098422;28;20392;-69
2022/11/15 12:24:53;;;;;;;;;;;13.00;99.90;;;;;;5086123;28;19927;-68
2022/11/15 12:27:21;;;;;;;;;;;13.00;99.90;;;;;;5084567;28;19962;-69
2022/11/15 12:29:49;;;;;;;;;;;13.00;99.90;;;;;;5096410;27;19920;-70
2022/11/15 12:32:17;;;;;;;;;;;13.10;99.90;;;;;;5113409;27;19939;-68
2022/11/15 12:34:45;;;;;;;;;;;13.00;99.90;;;;;;5082371;28;19924;-68
2022/11/15 12:37:29;;;;;;;;;;;12.90;99.90;;;;;;5115036;27;19923;-68
2022/11/15 12:40:18;;;;;;;;;;;12.80;99.90;;;;;;5077205;28;19928;-69
2022/11/15 12:43:01;;;;;;;;;;;12.90;99.90;;;;;;5066746;27;19972;-69
2022/11/15 12:45:31;;;;;;;;;;;12.80;99.90;;;;;;5082482;27;19932;-68
2022/11/15 12:48:23;;;;;;;;;;;12.80;99.90;;;;;;5101153;27;19920;-69
2022/11/15 12:50:54;;;;;;;;;;;12.80;99.90;;;;;;5079341;27;19920;-70
2022/11/15 12:53:23;;;;;;;;;;;12.70;99.90;;;;;;5076209;28;20257;-69
2022/11/15 12:56:04;;;;;;;;;;;12.70;99.90;;;;;;5103086;28;20036;-69
2022/11/15 12:58:48;;;;;;;;;;;12.70;99.90;;;;;;5078934;28;19926;-69
2022/11/15 13:01:32;;;;;;;;;;;12.50;99.90;;;;;;5109350;28;19971;-69
2022/11/15 13:04:17;;;;;;;;;;;12.50;99.90;;;;;;5075613;28;20447;-68
2022/11/15 13:06:44;;;;;;;;;;;12.50;99.90;;;;;;5100910;28;20393;-68
2022/11/15 13:09:28;;;;;;;;;;;12.40;99.90;;;;;;5129961;27;19920;-69
2022/11/15 13:11:54;;;;;;;;;;;12.40;99.90;;;;;;5097344;28;19947;-69
2022/11/15 13:14:42;;;;;;;;;;;12.40;99.90;;;;;;5129495;27;19923;-68
2022/11/15 13:17:31;;;;;;;;;;;12.40;99.90;;;;;;5097938;28;19920;-69
2022/11/15 13:20:00;;;;;;;;;;;12.40;99.90;;;;;;5095735;28;19928;-69
2022/11/15 13:25:29;;;;;;;;;;;12.30;99.90;;;;;;5107550;28;20008;-67
2022/11/15 13:27:57;;;;;;;;;;;12.30;99.90;;;;;;5109029;27;19920;-68
2022/11/15 13:30:26;;;;;;;;;;;12.20;99.90;;;;;;5102258;27;19928;-70
2022/11/15 13:32:52;;;;;;;;;;;12.30;99.90;;;;;;5101507;27;19919;-70
2022/11/15 13:35:26;;;;;;;;;;;12.20;99.90;;;;;;5105728;27;19927;-68
2022/11/15 13:37:52;;;;;;;;;;;12.20;99.90;;;;;;5136418;27;20022;-69
2022/11/15 13:40:21;;;;;;;;;;;12.20;99.90;;;;;;5106500;27;19927;-69
2022/11/15 13:42:46;;;;;;;;;;;12.20;99.90;;;;;;5096986;28;19963;-69
2022/11/15 13:45:14;;;;;;;;;;;12.10;99.90;;;;;;5104790;27;20397;-69
2022/11/15 13:47:41;;;;;;;;;;;12.10;99.90;;;;;;5097617;27;19920;-69
2022/11/15 13:50:10;;;;;;;;;;;12.10;99.90;;;;;;5102937;27;20473;-69
2022/11/15 13:52:36;;;;;;;;;;;12.00;99.90;;;;;;5095942;28;19939;-70
2022/11/15 13:55:10;;;;;;;;;;;12.00;99.90;;;;;;5099264;27;20004;-68
2022/11/15 13:57:44;;;;;;;;;;;11.90;99.90;;;;;;5133444;27;19931;-69
2022/11/15 14:00:28;;;;;;;;;;;11.90;99.90;;;;;;5100026;27;19928;-68
2022/11/15 14:02:55;;;;;;;;;;;11.80;99.90;;;;;;5100492;27;20375;-70
2022/11/15 14:05:21;;;;;;;;;;;11.70;99.90;;;;;;5099339;27;19924;-68
2022/11/15 14:07:58;;;;;;;;;;;11.70;99.90;;;;;;5120037;27;19924;-69
2022/11/15 14:10:32;;;;;;;;;;;11.60;99.90;;;;;;5105526;27;20361;-69
2022/11/15 14:12:58;;;;;;;;;;;11.50;99.90;;;;;;5132468;27;19962;-68
2022/11/15 14:15:30;;;;;;;;;;;11.50;99.90;;;;;;5108268;27;19986;-69
2022/11/15 14:17:55;;;;;;;;;;;11.50;99.90;;;;;;5104924;27;19927;-68
2022/11/15 14:20:35;;;;;;;;;;;11.40;99.90;;;;;;5135687;27;19923;-68
2022/11/15 14:23:05;;;;;;;;;;;11.40;99.90;;;;;;5100501;28;19923;-69
2022/11/15 14:25:31;;;;;;;;;;;11.30;99.90;;;;;;5100683;28;19920;-68
2022/11/15 14:28:09;;;;;;;;;;;11.40;99.90;;;;;;5101389;27;20301;-68
2022/11/15 14:30:35;;;;;;;;;;;11.40;99.90;;;;;;5123679;27;19934;-69
2022/11/15 14:33:02;;;;;;;;;;;11.40;99.90;;;;;;5101578;27;19982;-68
2022/11/15 14:35:28;;;;;;;;;;;11.40;99.90;;;;;;5098136;27;20014;-68
2022/11/15 14:37:53;;;;;;;;;;;11.40;99.90;;;;;;5099004;28;20023;-68
2022/11/15 14:40:20;;;;;;;;;;;11.40;99.90;;;;;;5113315;28;19926;-69
2022/11/15 14:42:47;;;;;;;;;;;11.40;99.90;;;;;;5105478;28;19978;-68
2022/11/15 14:45:14;;;;;;;;;;;11.30;99.90;;;;;;5112576;28;20023;-68
2022/11/15 14:47:40;;;;;;;;;;;11.30;99.90;;;;;;5102788;28;19927;-68